createdAt,value
2019-03-31T08:48:41.739Z,33.63
2019-03-31T08:53:46.416Z,34.67
2019-03-31T08:58:51.087Z,34.80
2019-03-31T09:03:55.852Z,34.77
2019-03-31T09:09:00.681Z,36.00
2019-03-31T09:14:05.887Z,34.70
2019-03-31T09:19:10.786Z,37.57
2019-03-31T09:24:15.677Z,35.57
2019-03-31T09:29:20.543Z,38.10
2019-03-31T09:34:28.445Z,34.43
2019-03-31T09:39:33.984Z,36.67
2019-03-31T09:44:38.992Z,36.83
2019-03-31T09:49:43.760Z,38.23
2019-03-31T09:54:48.529Z,39.80
2019-03-31T09:59:53.224Z,38.93
2019-03-31T10:04:57.843Z,39.90
2019-03-31T10:10:02.757Z,40.67
2019-03-31T10:15:08.318Z,39.33
2019-03-31T10:20:13.441Z,40.93
2019-03-31T10:25:18.139Z,42.27
2019-03-31T10:30:31.406Z,39.37
2019-03-31T10:40:48.672Z,41.73
2019-03-31T10:45:53.524Z,40.23
2019-03-31T10:50:58.890Z,42.43
2019-03-31T10:56:04.114Z,40.43
2019-03-31T11:01:08.761Z,40.87
2019-03-31T11:06:13.506Z,41.50
2019-03-31T11:11:18.350Z,45.00
2019-03-31T11:16:23.229Z,42.67
2019-03-31T11:21:28.153Z,41.57
2019-03-31T11:26:32.934Z,42.07
2019-03-31T11:31:37.839Z,43.77
2019-03-31T11:36:42.729Z,41.90
2019-03-31T11:41:48.020Z,45.97
2019-03-31T11:46:52.952Z,44.43
2019-03-31T11:51:57.741Z,41.90
2019-03-31T11:57:02.634Z,46.40
2019-03-31T12:02:07.968Z,44.43
2019-03-31T12:07:26.951Z,44.10
2019-03-31T12:12:19.660Z,45.10
2019-03-31T12:17:24.420Z,49.13
2019-03-31T12:22:29.259Z,50.30
2019-03-31T12:27:34.393Z,51.90
2019-03-31T12:32:39.361Z,53.27
2019-03-31T12:37:44.360Z,57.60
2019-03-31T12:42:49.183Z,59.57
2019-03-31T12:47:53.898Z,58.30
2019-03-31T12:52:58.714Z,59.07
2019-03-31T12:58:03.579Z,58.63
2019-03-31T13:03:08.420Z,62.03
2019-03-31T13:08:13.519Z,61.37
2019-03-31T13:13:19.809Z,62.90
2019-03-31T13:18:27.787Z,63.13
2019-03-31T13:23:31.180Z,65.17
2019-03-31T13:28:36.120Z,68.60
2019-03-31T13:33:41.033Z,64.93
2019-03-31T13:38:46.149Z,71.07
2019-03-31T13:43:52.183Z,65.33
2019-03-31T13:48:57.001Z,69.77
2019-03-31T13:54:01.824Z,64.37
2019-03-31T13:59:09.241Z,68.73
2019-03-31T14:04:14.341Z,68.80
2019-03-31T14:09:19.149Z,67.67
2019-03-31T14:14:23.943Z,66.23
2019-03-31T14:19:28.784Z,65.97
2019-03-31T14:24:33.677Z,65.83
2019-03-31T14:29:38.621Z,65.57
2019-03-31T14:34:43.673Z,66.73
2019-03-31T14:39:48.788Z,65.03
2019-03-31T14:44:53.921Z,66.47
2019-03-31T14:49:58.982Z,62.57
2019-03-31T14:55:04.024Z,60.97
2019-03-31T15:00:14.901Z,62.50
2019-03-31T15:05:18.501Z,65.10
2019-03-31T15:10:23.362Z,58.23
2019-03-31T15:15:30.941Z,59.57
2019-03-31T15:20:36.075Z,59.20
2019-03-31T15:25:43.187Z,59.40
2019-03-31T15:30:47.861Z,55.83
2019-03-31T15:35:54.281Z,56.33
2019-03-31T15:40:59.129Z,53.83
2019-03-31T15:46:04.282Z,50.87
2019-03-31T15:51:09.172Z,50.43
2019-03-31T15:56:14.040Z,47.87
2019-03-31T16:01:20.001Z,46.67
2019-03-31T16:06:27.422Z,49.20
2019-03-31T16:11:31.941Z,46.97
2019-03-31T16:16:36.813Z,43.00
2019-03-31T16:21:44.099Z,43.83
2019-03-31T16:26:47.341Z,46.93
2019-03-31T16:31:51.968Z,43.43
2019-03-31T16:36:56.249Z,42.47
2019-03-31T16:42:00.427Z,41.43
2019-03-31T16:47:04.850Z,40.70
2019-03-31T16:52:09.032Z,38.97
2019-03-31T16:57:13.227Z,39.70
2019-03-31T17:02:17.507Z,38.67
2019-03-31T17:07:23.651Z,37.10
2019-03-31T17:12:28.293Z,36.63
2019-03-31T17:17:32.566Z,36.70
2019-03-31T17:22:38.967Z,35.33
2019-03-31T17:27:43.600Z,35.57
2019-03-31T17:32:47.865Z,34.17
2019-03-31T17:37:52.146Z,34.13
2019-03-31T17:42:56.726Z,35.07
2019-03-31T17:48:02.107Z,34.23
2019-03-31T17:53:06.798Z,32.30
2019-03-31T17:58:11.146Z,30.67
2019-03-31T18:03:15.777Z,31.53
2019-03-31T18:08:20.007Z,32.10
2019-03-31T18:13:24.650Z,30.13
2019-03-31T18:18:28.967Z,29.73
2019-03-31T18:23:34.846Z,29.83
2019-03-31T18:28:39.266Z,29.40
2019-03-31T18:33:43.580Z,28.13
2019-03-31T18:38:48.047Z,28.20
2019-03-31T18:43:52.386Z,29.77
2019-03-31T18:48:56.907Z,29.17
2019-03-31T18:54:01.149Z,30.13
2019-03-31T18:59:05.425Z,28.50
2019-03-31T19:04:09.958Z,28.57
2019-03-31T19:09:14.349Z,29.20
2019-03-31T19:14:18.674Z,28.40
2019-03-31T19:19:25.626Z,29.07
2019-03-31T19:24:29.887Z,27.70
2019-03-31T19:29:34.069Z,28.70
2019-03-31T19:34:38.258Z,27.33
2019-03-31T19:39:42.488Z,27.93
2019-03-31T19:44:46.726Z,27.27
2019-03-31T19:49:52.926Z,28.83
2019-03-31T19:54:57.112Z,27.80
2019-03-31T20:00:04.687Z,26.77
2019-03-31T20:05:08.947Z,27.97
2019-03-31T20:10:14.471Z,27.07
2019-03-31T20:15:18.952Z,24.40
2019-03-31T20:20:23.236Z,25.57
2019-03-31T20:25:27.594Z,24.80
2019-03-31T20:30:31.806Z,25.23
2019-03-31T20:35:36.038Z,24.50
2019-03-31T20:40:41.027Z,27.57
2019-03-31T20:45:45.306Z,25.53
2019-03-31T20:50:50.465Z,27.63
2019-03-31T20:55:54.926Z,28.47
2019-03-31T21:00:59.357Z,29.13
2019-03-31T21:06:03.707Z,30.90
2019-03-31T21:11:09.066Z,31.23
2019-03-31T21:16:13.399Z,31.53
2019-03-31T21:21:17.825Z,32.57
2019-03-31T21:26:22.006Z,33.00
2019-03-31T21:31:28.239Z,32.20
2019-03-31T21:36:32.605Z,30.67
2019-03-31T21:41:36.906Z,31.30
2019-03-31T21:46:41.140Z,30.17
2019-03-31T21:51:46.406Z,31.90
2019-03-31T21:56:50.827Z,32.07
2019-03-31T22:01:58.226Z,31.73
2019-03-31T22:07:02.870Z,30.03
2019-03-31T22:12:07.112Z,30.27
2019-03-31T22:17:11.347Z,29.77
2019-03-31T22:22:15.608Z,29.10
2019-03-31T22:27:19.968Z,28.43
2019-03-31T22:32:24.354Z,28.40
2019-03-31T22:37:28.668Z,26.63
2019-03-31T22:42:32.897Z,26.00
2019-03-31T22:47:37.126Z,24.40
2019-03-31T22:52:42.342Z,26.53
2019-03-31T22:57:46.783Z,26.17
2019-03-31T23:02:51.223Z,22.73
2019-03-31T23:07:55.587Z,24.57
2019-03-31T23:12:59.857Z,20.87
2019-03-31T23:18:04.106Z,22.97
2019-03-31T23:23:08.464Z,20.73
2019-03-31T23:28:12.707Z,21.40
2019-03-31T23:38:54.049Z,17.67
2019-03-31T23:43:58.524Z,16.20
2019-03-31T23:49:02.755Z,14.50
2019-03-31T23:54:08.026Z,13.30
2019-03-31T23:59:12.336Z,11.90
